New Oxford, Pennsylvania
Current Conditions -  °F | °C
As of 2:53 AM on Monday 24 Nov 2014 (Local Time) from KTHV Reporting Station
Light Rain Light Rain  
Wind Chill: 60°   Ceiling: 1200
Heat Index: 60°   Visibility: 9mi
Dew Point: 57°   Wind: 9mph
Humidity: 90%   Direction: 170°S
Pressure: 29.64"   Gusts: 20mph
Location:  39.86°N, 77.06°W
Report Text: KTHV 240753Z AUTO 17008G17KT 9SM -RA OVC012 16/14 A2964 RMK AO2 PK WND 15028/0731 SLP037 P0003 T01560139
Loading
Personal Weather Stations






























Interactive Weather Map New forecast layout! Learn more

10-Day Weather Forecast

Advertisements
Track Severe Weather on mobile